Time;durP1;ratioP1;P1;durP2;ratioP2;P2;SDS_P1;SDS_P2;PMS_P1;PMS_P2;Temp;Humidity;BMP_temperature;BMP_pressure;BME280_temperature;BME280_humidity;BME280_pressure;Samples;Min_cycle;Max_cycle;Signal;HPM_P1;HPM_P2
2023/01/06 00:01:24;;;;;;;9.48;4.35;;;;;;;10.64;nan;101091.28;5029393;28;20018;-87
2023/01/06 00:03:52;;;;;;;6.10;4.13;;;;;;;10.65;nan;101092.09;5009354;28;20040;-86
2023/01/06 00:06:19;;;;;;;7.82;4.30;;;;;;;10.65;nan;101092.94;5007942;28;20037;-85
2023/01/06 00:08:44;;;;;;;8.07;4.10;;;;;;;10.69;nan;101081.13;5009203;28;20040;-86
2023/01/06 00:11:12;;;;;;;6.35;4.00;;;;;;;10.60;nan;101090.69;5027407;28;20033;-88
2023/01/06 00:13:38;;;;;;;7.97;4.40;;;;;;;10.54;nan;101083.34;5017625;28;20128;-87
2023/01/06 00:16:08;;;;;;;8.07;4.72;;;;;;;10.49;nan;101082.09;5009338;28;20029;-86
2023/01/06 00:18:34;;;;;;;6.77;3.93;;;;;;;10.46;nan;101090.28;5008304;28;20036;-86
2023/01/06 00:21:01;;;;;;;10.32;4.63;;;;;;;10.45;nan;101081.50;5007247;28;20038;-87
2023/01/06 00:23:26;;;;;;;6.72;4.20;;;;;;;10.43;nan;101085.28;5008427;28;20122;-86
2023/01/06 00:25:52;;;;;;;6.22;4.30;;;;;;;10.43;nan;101077.34;5009311;28;20064;-86
2023/01/06 00:28:17;;;;;;;7.72;4.20;;;;;;;10.40;nan;101076.63;5004578;28;20044;-87
2023/01/06 00:30:43;;;;;;;7.35;3.88;;;;;;;10.40;nan;101078.44;5009811;28;20596;-87
2023/01/06 00:33:08;;;;;;;8.05;4.38;;;;;;;10.38;nan;101072.47;5009850;28;20568;-87
2023/01/06 00:35:33;;;;;;;9.45;4.07;;;;;;;10.37;nan;101079.56;5009345;28;20050;-87
2023/01/06 00:37:58;;;;;;;7.35;4.28;;;;;;;10.37;nan;101065.50;5029318;28;20030;-89
2023/01/06 00:40:24;;;;;;;8.27;4.13;;;;;;;10.37;nan;101074.28;5026846;28;20034;-86
2023/01/06 00:42:49;;;;;;;9.82;4.43;;;;;;;10.38;nan;101067.16;5009792;28;20097;-86
2023/01/06 00:45:15;;;;;;;5.70;3.90;;;;;;;10.39;nan;101071.47;5009228;28;20091;-86
2023/01/06 00:47:40;;;;;;;7.90;4.45;;;;;;;10.37;nan;101074.28;5042306;28;20032;-86
2023/01/06 00:50:06;;;;;;;6.85;3.97;;;;;;;10.34;nan;101077.16;5013738;28;20061;-87
2023/01/06 00:52:33;;;;;;;6.75;4.07;;;;;;;10.37;nan;101076.91;5029492;28;20029;-88
2023/01/06 00:54:58;;;;;;;7.70;4.85;;;;;;;10.36;nan;101077.88;5050969;28;20045;-86
2023/01/06 00:57:23;;;;;;;8.48;4.63;;;;;;;10.40;nan;101081.09;5037826;28;20045;-89
2023/01/06 00:59:49;;;;;;;7.50;4.30;;;;;;;10.39;nan;101072.34;5033473;28;20435;-88
2023/01/06 01:02:14;;;;;;;6.07;4.13;;;;;;;10.39;nan;101074.97;5011903;28;20044;-87
2023/01/06 01:04:39;;;;;;;6.43;3.90;;;;;;;10.40;nan;101068.69;5009554;28;20048;-86
2023/01/06 01:07:05;;;;;;;6.07;3.85;;;;;;;10.41;nan;101065.06;5007670;28;20088;-87
2023/01/06 01:09:31;;;;;;;6.47;4.05;;;;;;;10.42;nan;101063.28;5012744;28;20030;-86
2023/01/06 01:12:09;;;;;;;5.95;4.15;;;;;;;10.44;nan;101055.19;5013889;28;20040;-87
2023/01/06 01:14:36;;;;;;;6.47;3.95;;;;;;;10.44;nan;101052.56;5001948;28;20037;-86
2023/01/06 01:17:02;;;;;;;6.05;4.35;;;;;;;10.47;nan;101062.88;5023440;28;20033;-86
2023/01/06 01:19:28;;;;;;;6.50;4.10;;;;;;;10.46;nan;101058.53;5013411;28;20038;-86
2023/01/06 01:21:53;;;;;;;5.40;3.65;;;;;;;10.48;nan;101059.25;5002206;28;20029;-86
2023/01/06 01:24:19;;;;;;;5.05;3.33;;;;;;;10.51;nan;101057.19;5010820;28;20037;-86
2023/01/06 01:26:45;;;;;;;4.88;3.50;;;;;;;10.50;nan;101052.84;5007103;28;20038;-86
2023/01/06 01:29:12;;;;;;;4.63;3.00;;;;;;;10.55;nan;101058.56;5010162;28;20033;-86
2023/01/06 01:31:37;;;;;;;4.80;3.65;;;;;;;10.59;nan;101053.84;5026926;28;20112;-86
2023/01/06 01:34:03;;;;;;;5.53;3.63;;;;;;;10.62;nan;101049.09;5001872;28;20111;-87
2023/01/06 01:36:28;;;;;;;5.55;3.45;;;;;;;10.60;nan;101052.84;5026562;28;20050;-87
2023/01/06 01:38:55;;;;;;;6.18;3.50;;;;;;;10.58;nan;101058.28;5031622;28;20436;-87
2023/01/06 01:41:22;;;;;;;6.00;3.78;;;;;;;10.62;nan;101054.38;5030735;28;20037;-86
2023/01/06 01:43:54;;;;;;;6.43;3.83;;;;;;;10.60;nan;101051.03;5015657;28;20051;-86
2023/01/06 01:46:31;;;;;;;5.47;4.10;;;;;;;10.57;nan;101050.50;5013645;28;20423;-86
2023/01/06 01:49:01;;;;;;;6.80;4.10;;;;;;;10.56;nan;101056.75;5014932;28;20511;-86
2023/01/06 01:51:33;;;;;;;6.28;3.90;;;;;;;10.54;nan;101056.06;5032824;28;20494;-86
2023/01/06 01:54:03;;;;;;;5.57;3.85;;;;;;;10.52;nan;101050.06;5033065;28;20404;-86
2023/01/06 01:56:32;;;;;;;4.88;3.20;;;;;;;10.52;nan;101056.19;5014702;28;20084;-86
2023/01/06 01:59:08;;;;;;;4.90;3.22;;;;;;;10.54;nan;101048.97;5012451;28;20065;-86
2023/01/06 02:01:33;;;;;;;4.80;3.10;;;;;;;10.54;nan;101056.06;5015444;28;20033;-86
2023/01/06 02:04:00;;;;;;;4.70;3.20;;;;;;;10.53;nan;101051.72;5014876;28;20045;-86
2023/01/06 02:06:26;;;;;;;5.53;3.70;;;;;;;10.54;nan;101053.41;5014701;28;20034;-86
2023/01/06 02:09:03;;;;;;;5.38;3.60;;;;;;;10.53;nan;101057.03;5033915;28;20025;-85
2023/01/06 02:11:31;;;;;;;4.97;3.80;;;;;;;10.59;nan;101044.09;5033646;28;20048;-85
2023/01/06 02:14:12;;;;;;;4.53;3.10;;;;;;;10.49;nan;101042.44;5033088;28;20064;-86
2023/01/06 02:16:59;;;;;;;4.53;3.22;;;;;;;10.47;nan;101044.38;5028044;28;20030;-86
2023/01/06 02:19:49;;;;;;;4.82;3.08;;;;;;;10.44;nan;101040.19;4999951;28;20034;-86
2023/01/06 02:22:33;;;;;;;5.40;3.25;;;;;;;10.42;nan;101044.78;5003946;28;20049;-86
2023/01/06 02:25:54;;;;;;;6.60;3.20;;;;;;;10.43;nan;101045.59;5034191;28;20041;-86
2023/01/06 02:28:39;;;;;;;4.53;2.97;;;;;;;10.44;nan;101044.63;4982847;28;20561;-87
2023/01/06 02:31:14;;;;;;;4.00;2.70;;;;;;;10.42;nan;101044.78;5009578;28;20292;-86
2023/01/06 02:33:48;;;;;;;5.30;2.95;;;;;;;10.47;nan;101041.72;5015834;28;20044;-86
2023/01/06 02:36:20;;;;;;;5.28;3.10;;;;;;;10.47;nan;101041.72;5032232;28;20421;-86
2023/01/06 02:39:29;;;;;;;4.55;3.08;;;;;;;10.46;nan;101040.03;5012984;28;20029;-85
2023/01/06 02:42:12;;;;;;;3.85;2.63;;;;;;;10.47;nan;101047.84;4996982;28;20061;-85
2023/01/06 02:44:48;;;;;;;5.80;3.05;;;;;;;10.46;nan;101046.16;5032115;28;20026;-85
2023/01/06 02:47:25;;;;;;;4.15;2.85;;;;;;;10.43;nan;101046.44;5012865;28;20030;-85
2023/01/06 02:49:53;;;;;;;3.80;2.72;;;;;;;10.43;nan;101043.78;4993935;28;20601;-85
2023/01/06 02:52:18;;;;;;;4.50;2.60;;;;;;;10.42;nan;101044.78;4995287;28;20049;-85
2023/01/06 02:55:01;;;;;;;4.35;2.55;;;;;;;10.41;nan;101051.03;5006940;28;20701;-85
2023/01/06 02:57:39;;;;;;;5.07;2.72;;;;;;;10.41;nan;101043.91;5014572;28;20041;-85
2023/01/06 03:00:11;;;;;;;4.35;3.08;;;;;;;10.43;nan;101051.72;5008885;28;20068;-85
2023/01/06 03:02:40;;;;;;;5.95;3.30;;;;;;;10.37;nan;101045.19;5020799;28;20048;-86
2023/01/06 03:05:08;;;;;;;6.63;3.30;;;;;;;10.37;nan;101036.44;5033655;28;20037;-86
2023/01/06 03:07:37;;;;;;;5.13;3.38;;;;;;;10.34;nan;101048.09;5034358;28;20021;-86
2023/01/06 03:10:03;;;;;;;6.18;3.22;;;;;;;10.31;nan;101042.25;5041882;28;20515;-87
2023/01/06 03:12:40;;;;;;;4.25;3.35;;;;;;;10.29;nan;101042.38;5051156;28;20029;-87
2023/01/06 03:15:07;;;;;;;5.05;2.97;;;;;;;10.26;nan;101045.28;5034538;28;20033;-86
2023/01/06 03:17:32;;;;;;;4.50;3.08;;;;;;;10.25;nan;101048.91;5024888;28;20528;-86
2023/01/06 03:19:58;;;;;;;4.43;3.00;;;;;;;10.23;nan;101045.56;5031657;28;20056;-87
2023/01/06 03:22:24;;;;;;;4.22;3.00;;;;;;;10.21;nan;101029.84;5023420;28;20486;-85
2023/01/06 03:24:51;;;;;;;4.05;3.10;;;;;;;10.20;nan;101041.38;5043646;28;20041;-85
2023/01/06 03:27:20;;;;;;;4.10;2.80;;;;;;;10.21;nan;101043.03;5035755;28;20026;-86
2023/01/06 03:29:46;;;;;;;4.25;2.67;;;;;;;10.19;nan;101033.59;5019990;28;20044;-85
2023/01/06 03:32:43;;;;;;;3.97;2.70;;;;;;;10.19;nan;101034.41;5031534;28;20082;-85
2023/01/06 03:35:21;;;;;;;6.28;3.15;;;;;;;10.19;nan;101037.06;5003205;28;20726;-85
2023/01/06 03:38:25;;;;;;;5.20;3.00;;;;;;;10.17;nan;101035.53;5020128;28;20041;-85
2023/01/06 03:40:58;;;;;;;5.07;3.00;;;;;;;10.13;nan;101027.06;5014462;28;20033;-86
2023/01/06 03:43:34;;;;;;;4.45;3.05;;;;;;;10.14;nan;101030.53;5032871;28;20519;-86
2023/01/06 03:46:24;;;;;;;5.85;3.47;;;;;;;10.12;nan;101032.47;5032703;28;20030;-85
2023/01/06 03:49:29;;;;;;;5.38;3.22;;;;;;;10.14;nan;101033.16;4995844;28;1100663;-85
2023/01/06 03:52:03;;;;;;;4.65;3.30;;;;;;;10.14;nan;101026.06;4956092;28;20035;-84
2023/01/06 03:54:44;;;;;;;5.57;3.22;;;;;;;10.15;nan;101019.81;4996465;28;20044;-85
2023/01/06 03:57:14;;;;;;;4.63;3.13;;;;;;;10.17;nan;101022.31;5016068;28;20041;-85
2023/01/06 03:59:44;;;;;;;4.23;3.10;;;;;;;10.16;nan;101028.59;5035090;28;20040;-86
2023/01/06 04:02:09;;;;;;;6.65;3.58;;;;;;;10.17;nan;101028.44;5033639;28;20034;-86
2023/01/06 04:04:36;;;;;;;6.07;3.50;;;;;;;10.14;nan;101014.66;5016624;28;20083;-85
2023/01/06 04:07:02;;;;;;;4.82;3.38;;;;;;;10.14;nan;101012.03;5017022;28;20029;-85
2023/01/06 04:09:27;;;;;;;5.95;3.53;;;;;;;10.12;nan;101008.69;5024584;28;20034;-85
2023/01/06 04:14:36;;;;;;;5.25;2.88;;;;;;;10.16;nan;101007.44;5034099;28;20516;-85
2023/01/06 04:17:02;;;;;;;6.00;3.60;;;;;;;10.18;nan;101001.03;5022298;28;20037;-85
2023/01/06 04:19:27;;;;;;;4.13;2.92;;;;;;;10.16;nan;100999.50;5033145;28;20064;-86
2023/01/06 04:21:53;;;;;;;5.75;3.60;;;;;;;10.16;nan;100999.50;5028589;28;20071;-85
2023/01/06 04:24:18;;;;;;;4.72;3.22;;;;;;;10.17;nan;100998.53;5032981;28;20069;-85
2023/01/06 04:26:43;;;;;;;4.55;3.20;;;;;;;10.20;nan;100998.25;5021251;28;20040;-85
2023/01/06 04:29:08;;;;;;;5.10;3.17;;;;;;;10.19;nan;100991.28;5015328;28;20029;-85
2023/01/06 04:31:34;;;;;;;3.83;3.13;;;;;;;10.21;nan;100994.66;5015932;28;20030;-85
2023/01/06 04:33:59;;;;;;;5.43;3.33;;;;;;;10.23;nan;100986.59;5012784;28;20056;-86
2023/01/06 04:36:24;;;;;;;6.97;3.53;;;;;;;10.25;nan;100977.53;5032225;28;20583;-86
2023/01/06 04:38:50;;;;;;;6.28;3.45;;;;;;;10.28;nan;100973.78;5026097;28;20052;-85
2023/01/06 04:41:15;;;;;;;4.20;2.90;;;;;;;10.26;nan;100983.66;5014938;28;20034;-85
2023/01/06 04:43:40;;;;;;;4.70;2.78;;;;;;;10.29;nan;100975.47;5033459;28;20060;-85
2023/01/06 04:46:06;;;;;;;5.30;2.47;;;;;;;10.29;nan;100970.19;5032584;28;20029;-84
2023/01/06 04:48:31;;;;;;;4.18;2.95;;;;;;;10.30;nan;100962.13;5032592;28;20044;-85
2023/01/06 04:51:04;;;;;;;5.25;2.97;;;;;;;10.31;nan;100968.25;5032619;28;20090;-85
2023/01/06 04:53:34;;;;;;;5.00;2.80;;;;;;;10.31;nan;100965.59;5013461;28;20133;-85
2023/01/06 04:56:04;;;;;;;4.55;3.00;;;;;;;10.28;nan;100958.78;5015349;28;20105;-85
2023/01/06 04:58:31;;;;;;;3.67;2.97;;;;;;;10.26;nan;100950.13;5033536;28;20063;-85
2023/01/06 05:01:05;;;;;;;3.90;3.00;;;;;;;10.23;nan;100952.22;5014782;28;20486;-85
2023/01/06 05:03:30;;;;;;;4.65;3.08;;;;;;;10.26;nan;100954.59;5017046;28;20049;-85
2023/01/06 05:06:00;;;;;;;4.60;3.00;;;;;;;10.23;nan;100949.59;5016918;28;20061;-85
2023/01/06 05:08:26;;;;;;;4.65;3.00;;;;;;;10.24;nan;100948.59;5015543;28;20049;-85
2023/01/06 05:10:58;;;;;;;4.10;2.67;;;;;;;10.21;nan;100950.53;5011363;28;20041;-86
2023/01/06 05:13:24;;;;;;;4.22;3.08;;;;;;;10.20;nan;100946.25;5015008;28;20053;-85
2023/01/06 05:15:49;;;;;;;4.13;3.00;;;;;;;10.21;nan;100953.19;5023443;28;20037;-85
2023/01/06 05:18:14;;;;;;;4.90;2.90;;;;;;;10.19;nan;100957.78;5013781;28;20041;-85
2023/01/06 05:20:39;;;;;;;4.97;2.38;;;;;;;10.19;nan;100959.59;5030759;28;20061;-85
2023/01/06 05:23:05;;;;;;;3.70;2.70;;;;;;;10.21;nan;100958.47;5008794;28;20041;-85
2023/01/06 05:25:30;;;;;;;4.50;2.53;;;;;;;10.18;nan;100969.34;5031194;28;20025;-86
2023/01/06 05:27:55;;;;;;;4.00;2.72;;;;;;;10.20;nan;100977.09;5013841;28;20029;-85
2023/01/06 05:30:21;;;;;;;3.90;2.60;;;;;;;10.19;nan;100967.50;5004790;28;20409;-85
2023/01/06 05:32:46;;;;;;;5.75;2.60;;;;;;;10.20;nan;100974.47;5015344;28;20044;-85
2023/01/06 05:35:11;;;;;;;4.35;2.90;;;;;;;10.22;nan;100975.16;5017817;28;20041;-85
2023/01/06 05:37:37;;;;;;;4.30;2.80;;;;;;;10.17;nan;100983.50;5020124;28;20060;-85
2023/01/06 05:40:02;;;;;;;3.22;2.50;;;;;;;10.14;nan;100986.44;5037608;28;20454;-85
2023/01/06 05:42:27;;;;;;;3.75;2.60;;;;;;;10.18;nan;100989.66;5018425;28;20047;-86
2023/01/06 05:44:53;;;;;;;3.28;2.33;;;;;;;10.12;nan;100983.09;5022026;28;20048;-86
2023/01/06 05:47:18;;;;;;;4.07;2.45;;;;;;;10.11;nan;100984.06;5014171;28;20033;-86
2023/01/06 05:49:43;;;;;;;4.35;2.58;;;;;;;10.09;nan;100988.66;5036824;28;20069;-86
2023/01/06 05:52:09;;;;;;;3.67;2.50;;;;;;;10.10;nan;100986.84;5032740;28;20117;-86
2023/01/06 05:54:34;;;;;;;4.38;2.10;;;;;;;10.07;nan;100987.94;5028110;28;20052;-86
2023/01/06 05:56:59;;;;;;;3.45;2.00;;;;;;;10.06;nan;100996.00;5035371;28;20495;-86
2023/01/06 05:59:24;;;;;;;2.78;2.10;;;;;;;10.02;nan;100995.44;5029175;28;20230;-85
2023/01/06 06:01:50;;;;;;;3.65;2.20;;;;;;;10.03;nan;101001.56;5015670;28;20033;-85
2023/01/06 06:04:15;;;;;;;4.35;2.35;;;;;;;10.02;nan;100997.28;5015789;28;20042;-86
2023/01/06 06:06:40;;;;;;;3.90;2.40;;;;;;;9.99;nan;100991.28;5026769;28;20121;-85
2023/01/06 06:09:06;;;;;;;3.40;2.03;;;;;;;9.98;nan;100991.41;5035900;28;20134;-85
2023/01/06 06:11:31;;;;;;;2.97;2.22;;;;;;;9.98;nan;101000.16;5035693;28;20030;-85
2023/01/06 06:13:57;;;;;;;4.05;2.40;;;;;;;9.96;nan;101001.28;5027315;28;20525;-85
2023/01/06 06:16:26;;;;;;;4.57;2.50;;;;;;;9.97;nan;101008.25;5034126;28;20037;-85
2023/01/06 06:18:57;;;;;;;4.18;2.70;;;;;;;9.95;nan;101003.09;5018075;28;20042;-85
2023/01/06 06:21:25;;;;;;;3.90;2.78;;;;;;;9.94;nan;101001.44;5031538;28;20038;-85
2023/01/06 06:23:55;;;;;;;3.97;2.50;;;;;;;9.92;nan;100998.06;5027970;28;20100;-85
2023/01/06 06:26:21;;;;;;;4.07;2.95;;;;;;;9.93;nan;100997.09;5025813;28;20057;-85
2023/01/06 06:28:46;;;;;;;5.03;2.60;;;;;;;9.94;nan;100998.78;5035420;28;20037;-86
2023/01/06 06:31:17;;;;;;;4.25;2.65;;;;;;;9.93;nan;101004.19;5035834;28;20083;-85
2023/01/06 06:33:43;;;;;;;;;;;;;;;9.88;nan;101009.06;5037223;28;20036;-86
2023/01/06 06:36:11;;;;;;;4.43;2.40;;;;;;;9.87;nan;101007.38;5018288;28;19921;-86
2023/01/06 06:38:37;;;;;;;4.65;2.40;;;;;;;9.91;nan;101003.50;5027882;28;20526;-85
2023/01/06 06:41:03;;;;;;;3.03;2.42;;;;;;;9.91;nan;101009.59;5033801;28;20499;-84
2023/01/06 06:43:28;;;;;;;5.75;3.17;;;;;;;9.95;nan;101010.19;5015790;28;20050;-84
2023/01/06 06:45:54;;;;;;;6.05;3.40;;;;;;;9.93;nan;101012.94;5018730;28;20030;-85
2023/01/06 06:48:19;;;;;;;3.95;2.65;;;;;;;9.89;nan;101008.94;5021864;28;20061;-86
2023/01/06 06:50:44;;;;;;;3.92;2.88;;;;;;;9.88;nan;101009.06;5021973;28;20112;-86
2023/01/06 06:53:10;;;;;;;3.63;2.60;;;;;;;9.87;nan;101016.16;5038309;28;20034;-86
2023/01/06 06:55:35;;;;;;;4.65;2.55;;;;;;;9.87;nan;101017.97;5038939;28;20045;-86
2023/01/06 06:58:00;;;;;;;3.65;2.85;;;;;;;9.84;nan;101013.75;5039424;28;20099;-86
2023/01/06 07:00:26;;;;;;;4.20;2.67;;;;;;;9.84;nan;101018.22;5018736;28;20045;-86
2023/01/06 07:02:51;;;;;;;3.53;2.55;;;;;;;9.84;nan;101011.13;5019370;28;20033;-85
2023/01/06 07:05:17;;;;;;;4.38;3.10;;;;;;;9.80;nan;101012.38;5022138;28;20053;-85
2023/01/06 07:07:43;;;;;;;4.10;2.95;;;;;;;9.76;nan;101013.59;5023030;28;20065;-85
2023/01/06 07:10:12;;;;;;;4.38;3.10;;;;;;;9.75;nan;101014.59;5022462;28;20033;-85
2023/01/06 07:12:38;;;;;;;4.07;3.00;;;;;;;9.73;nan;101020.00;5039054;28;20040;-85
2023/01/06 07:15:03;;;;;;;5.55;3.10;;;;;;;9.73;nan;101024.44;5020211;28;20147;-86
2023/01/06 07:17:29;;;;;;;4.50;2.88;;;;;;;9.75;nan;101031.25;5039518;28;20117;-86
2023/01/06 07:19:54;;;;;;;3.78;2.70;;;;;;;9.72;nan;101030.69;5013190;28;20041;-86
2023/01/06 07:22:19;;;;;;;4.03;3.00;;;;;;;9.72;nan;101025.41;5029129;28;20065;-86
2023/01/06 07:24:45;;;;;;;5.90;2.80;;;;;;;9.71;nan;101037.78;5013733;28;20410;-86
2023/01/06 07:27:10;;;;;;;4.35;2.50;;;;;;;9.69;nan;101030.97;5015484;28;20034;-87
2023/01/06 07:29:35;;;;;;;4.35;2.60;;;;;;;9.69;nan;101041.53;5012355;28;20399;-86
2023/01/06 07:32:01;;;;;;;4.10;2.63;;;;;;;9.67;nan;101041.63;5019726;28;20053;-86
2023/01/06 07:34:26;;;;;;;3.83;2.70;;;;;;;9.69;nan;101044.16;5026945;28;20038;-86
2023/01/06 07:36:51;;;;;;;3.75;2.63;;;;;;;9.70;nan;101044.03;5006250;28;20053;-86
2023/01/06 07:39:16;;;;;;;4.32;2.67;;;;;;;9.69;nan;101041.53;5006765;28;20034;-86
2023/01/06 07:41:42;;;;;;;3.42;2.30;;;;;;;9.67;nan;101052.19;5010757;28;20468;-86
2023/01/06 07:44:07;;;;;;;4.47;2.10;;;;;;;9.68;nan;101053.88;5019231;28;20536;-86
2023/01/06 07:46:32;;;;;;;3.20;1.85;;;;;;;9.67;nan;101060.13;5010796;28;20087;-86
2023/01/06 07:48:58;;;;;;;3.08;2.00;;;;;;;9.69;nan;101067.94;5028443;28;20049;-85
2023/01/06 07:51:23;;;;;;;4.30;2.05;;;;;;;9.70;nan;101082.78;4999273;28;20041;-85
2023/01/06 07:53:48;;;;;;;4.03;1.70;;;;;;;9.70;nan;101074.88;5027479;28;20072;-85
2023/01/06 07:56:13;;;;;;;2.72;1.67;;;;;;;9.67;nan;101075.13;5010887;28;20946;-86
2023/01/06 07:58:39;;;;;;;2.67;1.60;;;;;;;9.71;nan;101077.38;5029289;28;20499;-86
2023/01/06 08:01:06;;;;;;;3.20;1.20;;;;;;;9.72;nan;101081.69;5007633;28;20092;-86
2023/01/06 08:03:31;;;;;;;1.85;1.20;;;;;;;9.74;nan;101081.56;5016956;28;20053;-85
2023/01/06 08:05:56;;;;;;;2.97;1.40;;;;;;;9.77;nan;101083.94;5026292;28;20044;-85
2023/01/06 08:08:22;;;;;;;1.73;1.00;;;;;;;9.74;nan;101092.13;5027836;28;20045;-85
2023/01/06 08:10:47;;;;;;;2.85;1.05;;;;;;;9.73;nan;101095.75;5007923;28;20065;-86
2023/01/06 08:13:13;;;;;;;2.55;1.00;;;;;;;9.71;nan;101089.75;5017462;28;20499;-85
2023/01/06 08:15:39;;;;;;;1.52;0.70;;;;;;;9.70;nan;101088.06;5036359;28;20134;-86
2023/01/06 08:18:05;;;;;;;1.77;0.70;;;;;;;9.66;nan;101098.06;5016862;28;20076;-85
2023/01/06 08:20:32;;;;;;;0.85;0.68;;;;;;;9.65;nan;101092.91;5032816;28;20487;-85
2023/01/06 08:22:58;;;;;;;1.40;0.80;;;;;;;9.66;nan;101099.88;5016792;28;20450;-86
2023/01/06 08:25:23;;;;;;;1.67;0.68;;;;;;;9.68;nan;101093.50;5010962;28;20037;-86
2023/01/06 08:27:48;;;;;;;0.82;0.50;;;;;;;9.69;nan;101102.25;5010890;28;20025;-86
2023/01/06 08:30:18;;;;;;;0.70;0.60;;;;;;;9.69;nan;101094.34;5017373;28;20623;-86
2023/01/06 08:32:44;;;;;;;1.17;0.63;;;;;;;9.68;nan;101103.25;5024734;28;20044;-86
2023/01/06 08:35:09;;;;;;;0.50;0.50;;;;;;;9.70;nan;101101.28;5010230;28;20034;-85
2023/01/06 08:37:35;;;;;;;0.95;0.65;;;;;;;9.75;nan;101099.09;5009538;28;20070;-86
2023/01/06 08:40:00;;;;;;;1.40;0.77;;;;;;;9.76;nan;101098.94;5005288;28;20041;-85
2023/01/06 08:42:25;;;;;;;2.55;0.80;;;;;;;9.81;nan;101090.63;5032079;28;20049;-84
2023/01/06 08:44:51;;;;;;;1.42;0.73;;;;;;;9.83;nan;101093.16;5033454;28;20388;-85
2023/01/06 08:47:16;;;;;;;1.02;0.70;;;;;;;9.92;nan;101089.72;5026413;28;20037;-85
2023/01/06 08:49:41;;;;;;;1.42;0.82;;;;;;;9.97;nan;101090.13;5015990;28;20067;-85
2023/01/06 08:52:07;;;;;;;1.83;0.75;;;;;;;10.05;nan;101087.66;5015901;28;20604;-85
2023/01/06 08:54:32;;;;;;;1.20;0.60;;;;;;;10.09;nan;101096.16;5016874;28;20132;-86
2023/01/06 08:56:57;;;;;;;1.05;0.60;;;;;;;10.16;nan;101098.13;5028593;28;20048;-85
2023/01/06 08:59:22;;;;;;;0.95;0.60;;;;;;;10.17;nan;101094.50;5033649;28;20124;-85
2023/01/06 09:01:48;;;;;;;0.95;0.60;;;;;;;10.27;nan;101089.22;5015833;28;20495;-85
2023/01/06 09:04:13;;;;;;;0.80;0.60;;;;;;;10.34;nan;101090.38;5015828;28;20026;-85
2023/01/06 09:06:42;;;;;;;1.05;0.50;;;;;;;10.43;nan;101088.75;5018850;28;20547;-85
2023/01/06 09:09:07;;;;;;;0.80;0.60;;;;;;;10.49;nan;101074.16;5023615;28;20097;-85
2023/01/06 09:11:33;;;;;;;1.08;0.60;;;;;;;10.60;nan;101072.19;5019354;28;20064;-86
2023/01/06 09:13:59;;;;;;;2.90;0.90;;;;;;;10.68;nan;101063.59;5020015;28;20044;-85
2023/01/06 09:16:24;;;;;;;1.50;0.75;;;;;;;10.72;nan;101058.84;5036195;28;20569;-85
2023/01/06 09:18:49;;;;;;;1.23;0.68;;;;;;;10.82;nan;101063.16;5036943;28;20029;-85
2023/01/06 09:21:17;;;;;;;1.85;0.80;;;;;;;10.87;nan;101059.25;5017941;28;20038;-85
2023/01/06 09:23:42;;;;;;;1.17;0.70;;;;;;;10.87;nan;101052.16;5018281;28;20033;-85
2023/01/06 09:26:08;;;;;;;1.33;0.73;;;;;;;10.89;nan;101046.72;5031421;28;20565;-85
2023/01/06 09:28:34;;;;;;;1.90;0.77;;;;;;;10.90;nan;101054.50;5031859;28;20116;-85
2023/01/06 09:31:00;;;;;;;1.35;0.70;;;;;;;10.92;nan;101057.03;5033622;28;20029;-85
2023/01/06 09:33:25;;;;;;;1.58;0.85;;;;;;;10.90;nan;101059.81;5035057;28;20539;-85
2023/01/06 09:35:50;;;;;;;2.05;0.85;;;;;;;10.84;nan;101071.81;5017410;28;20034;-85
2023/01/06 09:38:16;;;;;;;1.65;0.82;;;;;;;10.79;nan;101073.19;5035454;28;20129;-85
2023/01/06 09:40:57;;;;;;;1.52;0.80;;;;;;;10.76;nan;101078.75;5035110;28;20076;-85
2023/01/06 09:43:51;;;;;;;3.15;1.00;;;;;;;10.73;nan;101085.16;5017875;28;20050;-85
2023/01/06 09:46:25;;;;;;;2.50;1.45;;;;;;;10.67;nan;101093.63;5032128;28;20040;-85
2023/01/06 09:49:12;;;;;;;1.60;1.00;;;;;;;10.60;nan;101087.22;5017717;28;20113;-85
2023/01/06 09:51:38;;;;;;;1.80;1.00;;;;;;;10.58;nan;101089.16;5032213;28;20030;-85
2023/01/06 09:54:14;;;;;;;5.70;1.13;;;;;;;10.52;nan;101080.00;5017711;28;20376;-85
2023/01/06 09:56:45;;;;;;;1.77;1.10;;;;;;;10.50;nan;101078.47;5018496;28;20040;-84
2023/01/06 09:59:35;;;;;;;2.95;1.25;;;;;;;10.53;nan;101081.66;5028519;28;20036;-85
2023/01/06 10:02:01;;;;;;;2.15;1.40;;;;;;;10.53;nan;101063.13;5016220;28;20045;-85
2023/01/06 10:04:29;;;;;;;1.75;1.20;;;;;;;10.52;nan;101069.41;5034439;28;20111;-85
2023/01/06 10:07:09;;;;;;;2.78;1.52;;;;;;;10.54;nan;101064.00;5034485;28;20029;-84
2023/01/06 10:09:47;;;;;;;3.83;1.85;;;;;;;10.59;nan;101082.94;5017820;28;20037;-85
2023/01/06 10:12:22;;;;;;;2.05;1.40;;;;;;;10.60;nan;101084.59;5030304;28;20109;-85
2023/01/06 10:15:15;;;;;;;2.30;1.40;;;;;;;10.61;nan;101095.03;5026719;28;20076;-84
2023/01/06 10:18:00;;;;;;;2.78;1.38;;;;;;;10.68;nan;101094.47;5003103;28;20085;-85
2023/01/06 10:20:53;;;;;;;2.10;1.20;;;;;;;10.77;nan;101097.13;5002930;28;20701;-87
2023/01/06 10:23:36;;;;;;;1.60;1.10;;;;;;;10.82;nan;101094.91;5033265;28;20414;-85
2023/01/06 10:26:11;;;;;;;1.42;1.08;;;;;;;10.80;nan;101094.22;5024664;28;20081;-85
2023/01/06 10:28:47;;;;;;;1.70;1.00;;;;;;;10.84;nan;101095.59;5003325;28;20046;-85
2023/01/06 10:31:19;;;;;;;2.47;1.20;;;;;;;10.90;nan;101098.66;5009220;28;20054;-85
2023/01/06 10:33:53;;;;;;;2.42;1.00;;;;;;;10.92;nan;101091.44;5011878;28;20037;-84
2023/01/06 10:36:28;;;;;;;1.50;0.98;;;;;;;10.89;nan;101087.22;5010927;28;20029;-84
2023/01/06 10:38:54;;;;;;;2.33;1.00;;;;;;;10.90;nan;101086.25;5024667;28;20422;-85
2023/01/06 10:41:52;;;;;;;1.92;0.98;;;;;;;10.90;nan;101082.78;5029845;28;20030;-85
2023/01/06 10:44:18;;;;;;;1.48;0.80;;;;;;;10.88;nan;101088.22;5009647;28;20120;-85
2023/01/06 10:46:46;;;;;;;2.45;1.00;;;;;;;10.83;nan;101091.28;5024122;28;20169;-86
2023/01/06 10:49:16;;;;;;;2.35;1.05;;;;;;;10.84;nan;101086.81;5014704;28;20551;-86
2023/01/06 10:51:44;;;;;;;2.30;0.98;;;;;;;10.83;nan;101088.63;5012707;28;20115;-86
2023/01/06 10:54:13;;;;;;;1.60;1.10;;;;;;;10.87;nan;101080.41;5012922;28;20043;-86
2023/01/06 10:56:44;;;;;;;1.92;0.90;;;;;;;10.90;nan;101088.09;5030520;28;20034;-86
2023/01/06 10:59:10;;;;;;;3.47;1.00;;;;;;;10.91;nan;101082.63;5026329;28;20121;-86
2023/01/06 11:01:48;;;;;;;1.67;1.00;;;;;;;10.90;nan;101085.44;5003226;28;20499;-86
2023/01/06 11:04:14;;;;;;;1.92;1.00;;;;;;;10.89;nan;101079.28;5010710;28;20190;-86
2023/01/06 11:06:45;;;;;;;1.73;1.00;;;;;;;10.94;nan;101089.44;4999764;28;20036;-86
2023/01/06 11:09:22;;;;;;;;;;;;;;;10.91;nan;101081.81;5028719;28;20065;-86
2023/01/06 11:11:49;;;;;;;2.67;1.40;;;;;;;10.95;nan;101083.19;5029135;28;19999;-86
2023/01/06 11:14:20;;;;;;;2.47;1.23;;;;;;;10.92;nan;101086.13;5010599;28;20399;-86
2023/01/06 11:17:06;;;;;;;;;;;;;;;10.96;nan;101079.56;5012615;28;20043;-86
2023/01/06 11:19:36;;;;;;;2.63;1.40;;;;;;;10.94;nan;101071.78;5013142;28;19916;-85
2023/01/06 11:22:02;;;;;;;1.85;0.90;;;;;;;10.96;nan;101072.47;5014592;28;20041;-85
2023/01/06 11:24:28;;;;;;;1.88;1.00;;;;;;;10.96;nan;101071.63;5013995;28;20037;-86
2023/01/06 11:27:12;;;;;;;2.47;1.10;;;;;;;10.93;nan;101063.97;5029056;28;20037;-86
2023/01/06 11:29:38;;;;;;;2.80;0.93;;;;;;;10.88;nan;101066.22;5006247;28;20033;-86
2023/01/06 11:32:17;;;;;;;1.42;0.90;;;;;;;10.87;nan;101056.59;5033943;28;20028;-85
2023/01/06 11:34:53;;;;;;;1.23;0.80;;;;;;;10.95;nan;101065.50;5017610;28;20391;-85
2023/01/06 11:37:48;;;;;;;1.35;0.90;;;;;;;10.91;nan;101061.47;5042228;28;20509;-86
2023/01/06 11:40:24;;;;;;;1.50;1.05;;;;;;;10.87;nan;101062.75;5007847;28;20059;-86
2023/01/06 11:43:00;;;;;;;2.88;1.10;;;;;;;10.86;nan;101062.88;5025753;28;20064;-86
2023/01/06 11:45:33;;;;;;;1.58;0.77;;;;;;;10.84;nan;101066.50;5002523;28;20049;-86
2023/01/06 11:47:59;;;;;;;2.00;0.70;;;;;;;10.80;nan;101065.09;5026238;28;20075;-86
2023/01/06 11:50:24;;;;;;;0.77;0.60;;;;;;;10.83;nan;101062.16;5025602;28;20073;-86
2023/01/06 11:53:13;;;;;;;1.73;0.70;;;;;;;10.82;nan;101046.44;5024876;28;20694;-86
2023/01/06 11:55:39;;;;;;;1.73;0.70;;;;;;;10.84;nan;101045.34;5024235;28;20030;-86
2023/01/06 11:58:12;;;;;;;2.70;0.80;;;;;;;10.86;nan;101029.31;5008403;28;20037;-87